Time;durP1;ratioP1;P1;durP2;ratioP2;P2;SDS_P1;SDS_P2;PMS_P1;PMS_P2;Temp;Humidity;BMP_temperature;BMP_pressure;BME280_temperature;BME280_humidity;BME280_pressure;Samples;Min_cycle;Max_cycle;Signal;HPM_P1;HPM_P2
2022/09/24 00:02:20;;;;;;;7.93;4.82;;;19.00;55.70;;;;;;5014404;28;20208;-72
2022/09/24 00:04:47;;;;;;;5.38;4.70;;;19.00;55.60;;;;;;5014558;28;20271;-72
2022/09/24 00:07:15;;;;;;;6.53;4.55;;;19.00;55.50;;;;;;5015268;28;20220;-72
2022/09/24 00:09:42;;;;;;;5.55;4.53;;;19.00;55.70;;;;;;4998142;28;20205;-72
2022/09/24 00:12:12;;;;;;;5.78;4.50;;;18.90;56.20;;;;;;5014344;28;20196;-72
2022/09/24 00:14:39;;;;;;;6.47;4.40;;;18.90;55.50;;;;;;5014376;28;20208;-72
2022/09/24 00:17:05;;;;;;;6.22;5.03;;;18.90;55.60;;;;;;5014191;28;20275;-72
2022/09/24 00:19:33;;;;;;;7.43;4.30;;;18.90;55.70;;;;;;5014243;28;20201;-72
2022/09/24 00:21:59;;;;;;;5.43;4.43;;;18.90;55.60;;;;;;5014187;28;20193;-72
2022/09/24 00:27:12;;;;;;;4.60;3.65;;;18.90;55.60;;;;;;5014100;28;20217;-72
2022/09/24 00:29:39;;;;;;;4.95;4.40;;;18.90;55.60;;;;;;5014443;28;20197;-72
2022/09/24 00:32:07;;;;;;;5.50;4.65;;;18.90;55.70;;;;;;5014222;28;20212;-72
2022/09/24 00:34:34;;;;;;;5.88;4.63;;;18.90;55.50;;;;;;5015127;28;20217;-72
2022/09/24 00:37:01;;;;;;;5.25;4.28;;;18.90;56.20;;;;;;5013726;28;20204;-72
2022/09/24 00:39:30;;;;;;;4.95;4.10;;;18.90;55.50;;;;;;5013865;28;20689;-72
2022/09/24 00:41:57;;;;;;;6.03;4.65;;;18.80;55.50;;;;;;5013901;28;20208;-72
2022/09/24 00:44:53;;;;;;;5.10;4.20;;;18.80;55.40;;;;;;5013801;28;20232;-72
2022/09/24 00:47:26;;;;;;;5.20;4.20;;;18.90;55.40;;;;;;5013818;28;20244;-72
2022/09/24 00:49:54;;;;;;;7.35;4.45;;;18.90;55.40;;;;;;5013658;28;20197;-72
2022/09/24 00:52:20;;;;;;;5.03;4.50;;;18.90;55.50;;;;;;5013877;28;20221;-72
2022/09/24 00:54:49;;;;;;;4.68;4.05;;;18.90;55.40;;;;;;5013565;28;20201;-72
2022/09/24 00:57:16;;;;;;;5.25;4.35;;;18.80;55.40;;;;;;5015223;28;20204;-72
2022/09/24 00:59:43;;;;;;;5.00;4.47;;;18.80;55.30;;;;;;5014736;28;20197;-72
2022/09/24 01:02:11;;;;;;;5.97;4.60;;;18.80;55.30;;;;;;5014625;28;20196;-72
2022/09/24 01:04:38;;;;;;;6.40;4.43;;;18.80;55.50;;;;;;5014729;28;20189;-72
2022/09/24 01:07:05;;;;;;;5.57;4.40;;;18.80;55.50;;;;;;5013694;28;20225;-72
2022/09/24 01:09:32;;;;;;;6.60;4.78;;;18.80;55.40;;;;;;5013405;28;20196;-72
2022/09/24 01:12:03;;;;;;;5.18;4.30;;;18.80;55.30;;;;;;5013435;28;20208;-72
2022/09/24 01:14:46;;;;;;;5.32;4.22;;;18.80;55.90;;;;;;5013371;28;20196;-72
2022/09/24 01:17:17;;;;;;;6.82;4.47;;;18.80;55.40;;;;;;5013223;28;20248;-72
2022/09/24 01:20:09;;;;;;;5.10;4.30;;;18.80;55.30;;;;;;5014705;28;20185;-72
2022/09/24 01:22:49;;;;;;;5.90;4.60;;;18.80;55.30;;;;;;4989227;28;20296;-72
2022/09/24 01:25:19;;;;;;;5.72;4.35;;;18.70;55.10;;;;;;5014180;28;20200;-72
2022/09/24 01:27:58;;;;;;;5.07;4.50;;;18.70;55.00;;;;;;5013246;28;20610;-72
2022/09/24 01:30:31;;;;;;;5.95;4.70;;;18.70;55.10;;;;;;4996847;28;20224;-72
2022/09/24 01:33:00;;;;;;;4.93;4.43;;;18.70;55.10;;;;;;5013688;28;20209;-72
2022/09/24 01:35:28;;;;;;;6.13;5.05;;;18.70;55.00;;;;;;5012969;28;20239;-72
2022/09/24 01:37:56;;;;;;;5.10;4.32;;;18.70;55.00;;;;;;5014145;28;20227;-72
2022/09/24 01:40:25;;;;;;;7.05;4.93;;;18.70;55.10;;;;;;5012995;28;20201;-72
2022/09/24 01:42:53;;;;;;;6.47;4.65;;;18.70;55.20;;;;;;5014502;28;20197;-72
2022/09/24 01:45:19;;;;;;;5.63;4.50;;;18.70;55.10;;;;;;5012874;28;20725;-72
2022/09/24 01:47:48;;;;;;;5.65;4.82;;;18.70;55.00;;;;;;5013716;28;20201;-72
2022/09/24 01:50:16;;;;;;;5.15;4.35;;;18.70;55.10;;;;;;5012941;28;20209;-72
2022/09/24 01:52:48;;;;;;;5.30;4.63;;;18.60;54.90;;;;;;5012734;28;20208;-72
2022/09/24 01:55:17;;;;;;;4.65;4.18;;;18.60;55.00;;;;;;5012953;28;20200;-72
2022/09/24 01:57:46;;;;;;;6.75;4.70;;;18.70;55.00;;;;;;5014280;28;20212;-72
2022/09/24 02:00:13;;;;;;;5.50;4.20;;;18.60;55.00;;;;;;5016866;28;20709;-72
2022/09/24 02:02:44;;;;;;;5.88;5.07;;;18.60;55.10;;;;;;5016971;28;20698;-72
2022/09/24 02:05:15;;;;;;;5.97;4.57;;;18.60;55.00;;;;;;5017890;28;20663;-72
2022/09/24 02:07:46;;;;;;;5.43;4.93;;;18.60;54.90;;;;;;5016822;28;20295;-72
2022/09/24 02:10:14;;;;;;;5.70;5.10;;;18.60;55.00;;;;;;5016774;28;20655;-72
2022/09/24 02:12:43;;;;;;;4.90;4.40;;;18.60;55.00;;;;;;5016642;28;20201;-72
2022/09/24 02:15:11;;;;;;;4.85;4.43;;;18.60;55.00;;;;;;5017883;28;20196;-72
2022/09/24 02:17:40;;;;;;;4.45;4.15;;;18.50;55.00;;;;;;5016589;28;20219;-72
2022/09/24 02:20:10;;;;;;;5.80;4.50;;;18.50;55.10;;;;;;5016636;28;20239;-72
2022/09/24 02:22:39;;;;;;;5.40;4.70;;;18.50;54.90;;;;;;5017251;28;20200;-72
2022/09/24 02:25:07;;;;;;;6.40;4.95;;;18.50;54.90;;;;;;5017394;28;20200;-72
2022/09/24 02:27:34;;;;;;;5.70;5.10;;;18.50;55.00;;;;;;5016540;28;20209;-72
2022/09/24 02:30:01;;;;;;;5.20;4.70;;;18.50;55.00;;;;;;5016479;28;20630;-72
2022/09/24 02:32:30;;;;;;;5.53;4.28;;;18.40;55.00;;;;;;5016396;28;20204;-72
2022/09/24 02:34:58;;;;;;;4.72;4.22;;;18.40;55.10;;;;;;5016590;28;20197;-72
2022/09/24 02:37:25;;;;;;;5.65;4.60;;;18.50;55.30;;;;;;5016371;28;20212;-73
2022/09/24 02:39:53;;;;;;;4.85;4.45;;;18.50;55.10;;;;;;5016296;28;20224;-73
2022/09/24 02:42:21;;;;;;;5.60;4.72;;;18.50;55.10;;;;;;5016479;28;20250;-72
2022/09/24 02:44:48;;;;;;;5.47;4.90;;;18.40;55.00;;;;;;5016321;28;20251;-73
2022/09/24 02:47:15;;;;;;;4.90;4.35;;;18.50;55.10;;;;;;5016555;28;20220;-72
2022/09/24 02:49:42;;;;;;;4.70;4.20;;;18.40;55.00;;;;;;5016077;28;20292;-73
2022/09/24 02:52:09;;;;;;;5.53;4.90;;;18.40;55.00;;;;;;5016134;28;20196;-72
2022/09/24 02:54:37;;;;;;;5.32;4.82;;;18.40;55.00;;;;;;5016262;28;20284;-72
2022/09/24 02:57:05;;;;;;;4.80;4.40;;;18.40;55.00;;;;;;5016192;28;20227;-72
2022/09/24 02:59:32;;;;;;;6.38;5.20;;;18.40;55.00;;;;;;5016612;28;20252;-72
2022/09/24 03:02:00;;;;;;;5.40;4.68;;;18.40;55.00;;;;;;5017261;28;20209;-72
2022/09/24 03:04:28;;;;;;;5.53;4.97;;;18.40;54.90;;;;;;5018440;28;20607;-72
2022/09/24 03:06:55;;;;;;;5.05;4.55;;;18.40;54.80;;;;;;5017609;28;20262;-72
2022/09/24 03:09:22;;;;;;;5.00;4.50;;;18.40;54.80;;;;;;5016745;28;20312;-72
2022/09/24 03:11:49;;;;;;;5.47;4.53;;;18.40;54.70;;;;;;5015816;28;20651;-72
2022/09/24 03:14:18;;;;;;;5.72;4.30;;;18.40;54.70;;;;;;5016841;28;20205;-72
2022/09/24 03:16:44;;;;;;;5.00;4.28;;;18.40;54.80;;;;;;5015714;28;20279;-72
2022/09/24 03:19:11;;;;;;;4.85;4.40;;;18.40;54.90;;;;;;5015616;28;20278;-72
2022/09/24 03:21:38;;;;;;;4.80;4.40;;;18.40;54.80;;;;;;5016178;28;20211;-72
2022/09/24 03:24:05;;;;;;;4.55;4.15;;;18.40;54.80;;;;;;5015857;28;20196;-72
2022/09/24 03:26:32;;;;;;;4.70;4.30;;;18.40;54.80;;;;;;5015580;28;20205;-72
2022/09/24 03:28:59;;;;;;;4.75;4.20;;;18.40;54.90;;;;;;4999604;28;20200;-72
2022/09/24 03:31:27;;;;;;;5.22;4.40;;;18.40;54.90;;;;;;4999719;28;20207;-72
2022/09/24 03:33:54;;;;;;;5.15;4.70;;;18.40;55.00;;;;;;5015761;28;20211;-72
2022/09/24 03:36:23;;;;;;;4.30;3.90;;;18.50;55.20;;;;;;5015303;28;20259;-72
2022/09/24 03:38:51;;;;;;;5.30;4.50;;;18.50;55.30;;;;;;5016510;28;20208;-72
2022/09/24 03:41:18;;;;;;;4.82;4.38;;;18.60;55.10;;;;;;5015386;28;20200;-72
2022/09/24 03:43:45;;;;;;;5.13;4.60;;;18.60;55.00;;;;;;5015463;28;20635;-72
2022/09/24 03:46:12;;;;;;;5.20;4.70;;;18.70;54.70;;;;;;5019215;28;20645;-71
2022/09/24 03:48:41;;;;;;;4.82;4.32;;;18.70;54.60;;;;;;5016925;28;20237;-72
2022/09/24 03:51:09;;;;;;;4.97;4.55;;;18.70;54.60;;;;;;5015051;28;20205;-72
2022/09/24 03:53:36;;;;;;;4.82;4.32;;;18.70;54.40;;;;;;5015291;28;20205;-72
2022/09/24 03:56:04;;;;;;;6.15;4.43;;;18.80;54.40;;;;;;4999136;28;20311;-72
2022/09/24 03:58:31;;;;;;;5.35;4.85;;;18.80;54.40;;;;;;5014716;28;20225;-72
2022/09/24 04:00:58;;;;;;;4.40;4.00;;;18.80;54.40;;;;;;5014942;28;20215;-72
2022/09/24 04:03:25;;;;;;;5.15;4.65;;;18.80;54.40;;;;;;5015324;28;20208;-72
2022/09/24 04:05:54;;;;;;;5.60;4.50;;;18.80;54.20;;;;;;5014660;28;20307;-72
2022/09/24 04:08:22;;;;;;;5.35;4.55;;;18.80;54.40;;;;;;5014518;28;20197;-72
2022/09/24 04:10:49;;;;;;;4.38;3.97;;;18.80;54.40;;;;;;5014495;28;20200;-72
2022/09/24 04:13:16;;;;;;;4.72;4.32;;;18.70;54.40;;;;;;5014337;28;20250;-72
2022/09/24 04:15:44;;;;;;;4.80;4.22;;;18.70;54.40;;;;;;5014364;28;20224;-72
2022/09/24 04:18:11;;;;;;;4.85;4.40;;;18.70;54.40;;;;;;5014171;28;20208;-72
2022/09/24 04:20:37;;;;;;;5.03;4.60;;;18.70;54.40;;;;;;5013419;28;20189;-72
2022/09/24 04:23:06;;;;;;;4.68;4.28;;;18.70;54.30;;;;;;5014162;28;20209;-72
2022/09/24 04:25:33;;;;;;;4.28;3.95;;;18.70;54.20;;;;;;5015339;28;20671;-72
2022/09/24 04:28:00;;;;;;;4.70;4.13;;;18.70;54.40;;;;;;5014029;28;20197;-72
2022/09/24 04:30:27;;;;;;;4.85;4.38;;;18.70;54.30;;;;;;5014974;28;20193;-72
2022/09/24 04:32:54;;;;;;;4.72;4.32;;;18.70;54.40;;;;;;5014835;28;20208;-72
2022/09/24 04:35:22;;;;;;;4.63;4.13;;;18.70;54.40;;;;;;5013988;28;20197;-72
2022/09/24 04:37:49;;;;;;;4.70;4.30;;;18.70;54.40;;;;;;5013898;28;20205;-72
2022/09/24 04:40:18;;;;;;;4.93;4.43;;;18.70;54.40;;;;;;5013808;28;20212;-72
2022/09/24 04:42:45;;;;;;;4.60;4.20;;;18.70;54.40;;;;;;5013782;28;20234;-72
2022/09/24 04:45:12;;;;;;;4.60;4.20;;;18.70;54.40;;;;;;5014044;28;20192;-72
2022/09/24 04:47:40;;;;;;;5.00;4.22;;;18.70;54.40;;;;;;5013984;28;20200;-72
2022/09/24 04:50:10;;;;;;;6.93;4.65;;;18.70;54.40;;;;;;5013759;28;20227;-72
2022/09/24 04:52:37;;;;;;;4.80;4.30;;;18.70;54.40;;;;;;5013702;28;20254;-72
2022/09/24 04:55:04;;;;;;;4.72;4.32;;;18.70;54.30;;;;;;5013550;28;20686;-72
2022/09/24 04:57:35;;;;;;;6.05;4.35;;;18.70;54.40;;;;;;5013505;28;20661;-72
2022/09/24 05:00:03;;;;;;;4.53;4.13;;;18.70;54.40;;;;;;5014971;28;20201;-72
2022/09/24 05:02:30;;;;;;;4.60;4.15;;;18.70;54.40;;;;;;5014708;28;20187;-72
2022/09/24 05:04:57;;;;;;;4.35;4.00;;;18.70;54.40;;;;;;5013525;28;20663;-72
2022/09/24 05:07:24;;;;;;;5.32;4.78;;;18.70;55.00;;;;;;5013707;28;20316;-72
2022/09/24 05:09:52;;;;;;;4.97;4.50;;;18.70;54.20;;;;;;5014336;28;20201;-72
2022/09/24 05:12:19;;;;;;;4.85;4.35;;;18.70;54.40;;;;;;5013319;28;20248;-72
2022/09/24 05:14:48;;;;;;;5.10;4.60;;;18.70;54.30;;;;;;5013239;28;20197;-72
2022/09/24 05:17:15;;;;;;;4.95;4.45;;;18.70;54.30;;;;;;5014332;28;20216;-72
2022/09/24 05:19:42;;;;;;;4.97;4.45;;;18.70;54.30;;;;;;5013138;28;20698;-72
2022/09/24 05:22:09;;;;;;;5.25;4.68;;;18.70;54.30;;;;;;5014424;28;20276;-72
2022/09/24 05:24:37;;;;;;;5.68;4.65;;;18.70;54.30;;;;;;5013287;28;20655;-72
2022/09/24 05:27:09;;;;;;;4.82;4.32;;;18.70;54.40;;;;;;5013429;28;20311;-72
2022/09/24 05:29:37;;;;;;;5.20;4.65;;;18.70;54.40;;;;;;5013138;28;20635;-72
2022/09/24 05:32:06;;;;;;;4.85;4.43;;;18.70;54.40;;;;;;4996730;28;20207;-72
2022/09/24 05:34:33;;;;;;;5.28;4.78;;;18.70;54.40;;;;;;5012969;28;20196;-72
2022/09/24 05:37:02;;;;;;;4.22;3.90;;;18.70;54.40;;;;;;5012891;28;20303;-72
2022/09/24 05:39:30;;;;;;;5.32;4.55;;;18.70;54.30;;;;;;5012940;28;20216;-72
2022/09/24 05:41:57;;;;;;;5.10;4.60;;;18.70;54.40;;;;;;5012893;28;20205;-72
2022/09/24 05:44:24;;;;;;;5.25;4.75;;;18.70;54.30;;;;;;5014807;28;20713;-72
2022/09/24 05:46:51;;;;;;;4.57;4.18;;;18.70;54.30;;;;;;5013160;28;20263;-72
2022/09/24 05:49:19;;;;;;;5.20;4.70;;;18.70;54.30;;;;;;5012994;28;20193;-72
2022/09/24 05:51:48;;;;;;;5.15;4.75;;;18.70;54.20;;;;;;5012940;28;20663;-73
2022/09/24 05:54:16;;;;;;;5.10;4.60;;;18.70;54.30;;;;;;5012788;28;20208;-73
2022/09/24 05:56:43;;;;;;;4.95;4.45;;;18.70;54.20;;;;;;5013800;28;20221;-72
2022/09/24 05:59:10;;;;;;;5.07;4.63;;;18.70;54.20;;;;;;5012820;28;20582;-72
2022/09/24 06:01:37;;;;;;;5.00;4.50;;;18.70;54.20;;;;;;5013980;28;20283;-72
2022/09/24 06:04:04;;;;;;;4.97;4.57;;;18.70;54.20;;;;;;5014279;28;20191;-72
2022/09/24 06:06:33;;;;;;;5.13;4.72;;;18.70;54.30;;;;;;5012720;28;20286;-72
2022/09/24 06:08:59;;;;;;;5.15;4.65;;;18.70;54.30;;;;;;5012724;28;20192;-72
2022/09/24 06:11:28;;;;;;;5.18;4.78;;;18.70;54.20;;;;;;5013993;28;20215;-72
2022/09/24 06:13:55;;;;;;;5.00;4.50;;;18.70;54.20;;;;;;5012918;28;20295;-72
2022/09/24 06:16:22;;;;;;;5.15;4.65;;;18.80;54.20;;;;;;5012695;28;20208;-72
2022/09/24 06:18:49;;;;;;;5.15;4.75;;;18.80;54.30;;;;;;5012671;28;20291;-72
2022/09/24 06:21:17;;;;;;;5.43;4.93;;;18.80;54.20;;;;;;5013290;28;20247;-72
2022/09/24 06:23:46;;;;;;;4.68;4.28;;;18.80;54.20;;;;;;5012742;28;20251;-72
2022/09/24 06:26:13;;;;;;;4.95;4.55;;;18.80;54.10;;;;;;5013355;28;20287;-72
2022/09/24 06:28:40;;;;;;;4.97;4.47;;;18.80;54.00;;;;;;5014030;28;20189;-72
2022/09/24 06:31:08;;;;;;;5.10;4.57;;;18.90;54.10;;;;;;5013761;28;20196;-72
2022/09/24 06:33:36;;;;;;;5.43;4.93;;;18.90;54.10;;;;;;5012919;28;20296;-72
2022/09/24 06:36:04;;;;;;;4.68;4.22;;;18.90;53.90;;;;;;5012444;28;20251;-72
2022/09/24 06:38:31;;;;;;;5.07;4.60;;;18.90;53.80;;;;;;5012614;28;20228;-72
2022/09/24 06:41:01;;;;;;;4.80;4.40;;;18.90;53.70;;;;;;5013616;28;20216;-72
2022/09/24 06:43:28;;;;;;;5.60;4.90;;;18.90;53.70;;;;;;5013378;28;20291;-72
2022/09/24 06:45:55;;;;;;;5.30;4.80;;;18.90;53.70;;;;;;5016142;28;20217;-72
2022/09/24 06:48:23;;;;;;;5.07;4.60;;;19.00;53.80;;;;;;5016158;28;20204;-72
2022/09/24 06:50:50;;;;;;;4.93;4.43;;;19.00;53.80;;;;;;5016000;28;20205;-72
2022/09/24 06:53:17;;;;;;;5.05;4.63;;;19.00;53.80;;;;;;5016036;28;20201;-72
2022/09/24 06:55:44;;;;;;;4.82;4.30;;;19.00;53.70;;;;;;5015850;28;20316;-72
2022/09/24 06:58:13;;;;;;;5.28;4.30;;;19.00;53.80;;;;;;5015816;28;20201;-73
2022/09/24 07:00:41;;;;;;;4.85;4.45;;;19.00;53.70;;;;;;5015633;28;20236;-73
2022/09/24 07:03:10;;;;;;;5.18;4.68;;;19.00;53.70;;;;;;5015987;28;20281;-72
2022/09/24 07:05:37;;;;;;;6.13;4.05;;;19.00;53.70;;;;;;5015979;28;20225;-72
2022/09/24 07:08:04;;;;;;;4.90;4.50;;;19.00;53.70;;;;;;5015878;28;20259;-72
2022/09/24 07:10:31;;;;;;;4.80;4.40;;;19.10;53.60;;;;;;5015571;28;20204;-72
2022/09/24 07:12:59;;;;;;;6.88;4.10;;;19.10;53.60;;;;;;5016980;28;20195;-72
2022/09/24 07:15:27;;;;;;;5.07;4.55;;;19.10;53.60;;;;;;5015629;28;20227;-72
2022/09/24 07:17:57;;;;;;;4.88;4.47;;;19.10;53.60;;;;;;5016802;28;20196;-72
2022/09/24 07:20:26;;;;;;;4.75;4.10;;;19.10;53.60;;;;;;5015397;28;20231;-72
2022/09/24 07:22:53;;;;;;;5.65;4.50;;;19.10;53.70;;;;;;5015542;28;20196;-72
2022/09/24 07:25:20;;;;;;;4.82;4.32;;;19.10;53.80;;;;;;5017201;28;20196;-72
2022/09/24 07:27:47;;;;;;;4.95;4.55;;;19.10;53.80;;;;;;5015610;28;20197;-72
2022/09/24 07:30:14;;;;;;;7.03;4.30;;;19.10;53.90;;;;;;5015478;28;20189;-72
2022/09/24 07:32:42;;;;;;;5.90;4.53;;;19.10;54.90;;;;;;5015398;28;20205;-72
2022/09/24 07:35:09;;;;;;;5.38;4.85;;;19.10;55.00;;;;;;5016273;28;20279;-72
2022/09/24 07:37:36;;;;;;;4.85;4.38;;;19.20;54.90;;;;;;5016683;28;20196;-72
2022/09/24 07:40:04;;;;;;;5.60;4.70;;;19.20;55.00;;;;;;5015302;28;20252;-72
2022/09/24 07:42:31;;;;;;;5.20;4.70;;;19.20;54.90;;;;;;5015294;28;20231;-72
2022/09/24 07:44:59;;;;;;;8.75;5.45;;;19.30;55.30;;;;;;5015272;28;20571;-72
2022/09/24 07:47:27;;;;;;;7.30;4.90;;;19.30;55.40;;;;;;5015786;28;20225;-72
2022/09/24 07:49:55;;;;;;;5.43;4.43;;;19.30;55.40;;;;;;5015209;28;20204;-72
2022/09/24 07:52:22;;;;;;;5.40;4.90;;;19.40;55.40;;;;;;5016404;28;20667;-72
2022/09/24 07:54:50;;;;;;;6.88;4.68;;;19.40;55.00;;;;;;5013802;28;20208;-72
2022/09/24 07:57:17;;;;;;;5.20;4.80;;;19.50;55.10;;;;;;5014974;28;20256;-72
2022/09/24 07:59:44;;;;;;;5.22;4.72;;;19.50;54.90;;;;;;5014638;28;20251;-72
2022/09/24 08:02:15;;;;;;;5.35;4.47;;;19.50;54.80;;;;;;5014826;28;20213;-72
2022/09/24 08:04:42;;;;;;;6.55;4.57;;;19.60;54.70;;;;;;5015683;28;20209;-72
2022/09/24 08:07:11;;;;;;;5.22;4.50;;;19.60;54.50;;;;;;5014520;28;20315;-72
2022/09/24 08:09:38;;;;;;;5.25;4.38;;;19.70;54.40;;;;;;5014928;28;20196;-73
2022/09/24 08:12:05;;;;;;;5.13;4.72;;;19.70;54.30;;;;;;5014456;28;20201;-72
2022/09/24 08:14:32;;;;;;;5.38;4.88;;;19.70;54.30;;;;;;5014630;28;20239;-72
2022/09/24 08:17:00;;;;;;;7.03;5.03;;;19.80;54.20;;;;;;5014652;28;20274;-73
2022/09/24 08:19:27;;;;;;;5.40;4.90;;;19.80;54.40;;;;;;5015046;28;20204;-72
2022/09/24 08:21:53;;;;;;;6.65;4.90;;;19.90;54.50;;;;;;5014421;28;20196;-73
2022/09/24 08:24:22;;;;;;;5.60;5.10;;;19.90;54.30;;;;;;5015607;28;20192;-73
2022/09/24 08:26:49;;;;;;;5.20;4.70;;;19.90;54.10;;;;;;5014292;28;20271;-73
2022/09/24 08:29:16;;;;;;;5.43;4.80;;;19.90;54.00;;;;;;5014736;28;20192;-72
2022/09/24 08:31:43;;;;;;;5.00;4.47;;;19.90;53.80;;;;;;5014744;28;20193;-72
2022/09/24 08:34:10;;;;;;;5.13;4.50;;;20.00;53.70;;;;;;5015257;28;20204;-72
2022/09/24 08:36:37;;;;;;;5.30;4.80;;;20.00;53.70;;;;;;5014421;28;20217;-72
2022/09/24 08:39:05;;;;;;;5.15;4.60;;;20.10;53.60;;;;;;5014204;28;20201;-72
2022/09/24 08:41:52;;;;;;;5.95;4.57;;;20.10;53.50;;;;;;5014385;28;20701;-72
2022/09/24 08:49:47;;;;;;;4.70;4.20;;;20.30;52.90;;;;;;5013846;28;20211;-73
2022/09/24 08:52:19;;;;;;;4.75;4.15;;;20.40;53.00;;;;;;5013926;28;20201;-73
2022/09/24 08:54:46;;;;;;;4.93;4.50;;;20.40;52.90;;;;;;5014728;28;20635;-72
2022/09/24 08:57:16;;;;;;;4.60;4.10;;;20.50;52.90;;;;;;5014163;28;20221;-72
2022/09/24 08:59:44;;;;;;;4.72;4.30;;;20.50;52.60;;;;;;5013845;28;20631;-72
2022/09/24 09:02:19;;;;;;;4.65;4.25;;;20.60;52.60;;;;;;5014802;28;20210;-72
2022/09/24 09:04:52;;;;;;;4.40;3.97;;;20.60;52.40;;;;;;5013880;28;20201;-72
2022/09/24 09:07:21;;;;;;;4.63;4.18;;;20.70;52.30;;;;;;5013482;28;20224;-72
2022/09/24 09:09:49;;;;;;;5.22;3.90;;;20.70;52.30;;;;;;5014716;28;20193;-72
2022/09/24 09:12:21;;;;;;;4.50;4.10;;;20.80;52.30;;;;;;5013591;28;20212;-72
2022/09/24 09:14:51;;;;;;;4.70;4.30;;;20.80;52.30;;;;;;5013407;28;20296;-71
2022/09/24 09:17:25;;;;;;;5.35;4.50;;;20.90;52.20;;;;;;5013366;28;20225;-72
2022/09/24 09:19:55;;;;;;;4.70;4.22;;;20.90;52.10;;;;;;5014269;28;20536;-72
2022/09/24 09:22:24;;;;;;;4.45;4.05;;;20.90;52.00;;;;;;5013157;28;20201;-72
2022/09/24 09:24:52;;;;;;;4.05;3.65;;;21.00;51.90;;;;;;5013079;28;20666;-72
2022/09/24 09:27:20;;;;;;;5.22;3.50;;;21.00;51.80;;;;;;5013238;28;20224;-72
2022/09/24 09:29:49;;;;;;;3.90;3.30;;;21.00;51.50;;;;;;5013811;28;20200;-72
2022/09/24 09:32:22;;;;;;;5.18;3.55;;;21.00;51.50;;;;;;5013678;28;20197;-72
2022/09/24 09:34:54;;;;;;;3.72;3.33;;;21.00;51.50;;;;;;5013076;28;20299;-72
2022/09/24 09:37:27;;;;;;;3.60;3.28;;;21.00;51.50;;;;;;5012888;28;20608;-72
2022/09/24 09:39:57;;;;;;;4.85;3.40;;;21.00;51.50;;;;;;5014124;28;20271;-72
2022/09/24 09:42:30;;;;;;;4.13;3.60;;;21.00;51.50;;;;;;5012894;28;20197;-72
2022/09/24 09:45:00;;;;;;;3.90;3.30;;;21.00;51.50;;;;;;5012941;28;20192;-72
2022/09/24 09:47:34;;;;;;;3.90;3.33;;;21.00;52.20;;;;;;5012693;28;20687;-72
2022/09/24 09:50:05;;;;;;;3.65;3.30;;;21.00;51.70;;;;;;5014329;28;20682;-72
2022/09/24 09:52:35;;;;;;;3.28;2.88;;;20.90;51.50;;;;;;5012654;28;20662;-72
2022/09/24 09:55:04;;;;;;;3.67;3.33;;;20.90;51.60;;;;;;5012732;28;20636;-72
2022/09/24 09:57:34;;;;;;;4.85;3.30;;;20.90;51.60;;;;;;5012696;28;20251;-72
2022/09/24 10:00:01;;;;;;;3.38;3.08;;;20.90;51.60;;;;;;5012476;28;20296;-72
2022/09/24 10:02:39;;;;;;;3.55;3.00;;;20.90;51.70;;;;;;5013741;28;20187;-72
2022/09/24 10:05:06;;;;;;;3.53;3.22;;;20.90;51.60;;;;;;5012584;28;20196;-72
2022/09/24 10:07:33;;;;;;;6.30;3.30;;;20.90;51.60;;;;;;5013277;28;20255;-72
2022/09/24 10:10:02;;;;;;;4.43;3.47;;;20.90;51.70;;;;;;5011493;28;20208;-72
2022/09/24 10:12:29;;;;;;;3.45;3.13;;;20.90;51.80;;;;;;5012116;28;20621;-72
2022/09/24 10:15:01;;;;;;;4.75;3.50;;;20.90;51.70;;;;;;5012678;28;20304;-72
2022/09/24 10:17:32;;;;;;;3.72;3.15;;;20.90;52.50;;;;;;5012424;28;20299;-72
2022/09/24 10:20:01;;;;;;;3.60;3.30;;;20.90;51.90;;;;;;5015807;28;20197;-72
2022/09/24 10:22:28;;;;;;;3.25;2.95;;;20.90;51.90;;;;;;5016407;28;20205;-72
2022/09/24 10:24:56;;;;;;;3.25;2.95;;;20.90;51.90;;;;;;5016414;28;20205;-72
2022/09/24 10:27:27;;;;;;;4.28;3.17;;;20.90;51.80;;;;;;5016241;28;20637;-72
2022/09/24 10:32:40;;;;;;;3.50;2.95;;;20.90;51.80;;;;;;5016112;28;20200;-72
2022/09/24 10:35:20;;;;;;;3.58;2.92;;;20.90;51.80;;;;;;5016192;28;20726;-72
2022/09/24 10:37:50;;;;;;;3.58;3.20;;;21.00;51.80;;;;;;5016406;28;20220;-72
2022/09/24 10:40:22;;;;;;;3.60;3.03;;;20.90;51.70;;;;;;5015988;28;20197;-72
2022/09/24 10:42:55;;;;;;;3.00;2.80;;;20.90;51.70;;;;;;5015966;28;20193;-71
2022/09/24 10:45:22;;;;;;;3.28;2.97;;;21.00;51.60;;;;;;5016570;28;20219;-71
2022/09/24 10:47:52;;;;;;;4.00;2.85;;;21.00;51.30;;;;;;5017183;28;20206;-71
2022/09/24 10:50:24;;;;;;;2.90;2.70;;;21.00;51.20;;;;;;5016026;28;20677;-71
2022/09/24 10:52:53;;;;;;;3.45;3.15;;;21.00;51.00;;;;;;5016970;28;20189;-71
2022/09/24 10:55:28;;;;;;;2.92;2.70;;;21.10;51.10;;;;;;5016064;28;20232;-71
2022/09/24 10:58:01;;;;;;;2.95;2.67;;;21.10;51.10;;;;;;5015903;28;20193;-71
2022/09/24 11:00:31;;;;;;;3.20;2.90;;;21.10;51.10;;;;;;5016839;28;20244;-71
2022/09/24 11:03:23;;;;;;;3.05;2.80;;;21.10;51.00;;;;;;5015775;28;20201;-71
2022/09/24 11:05:52;;;;;;;4.13;3.13;;;21.10;51.10;;;;;;5017242;28;20305;-71
2022/09/24 11:08:25;;;;;;;3.25;2.95;;;21.20;51.10;;;;;;5015734;28;20201;-71
2022/09/24 11:11:19;;;;;;;3.28;2.95;;;21.20;51.20;;;;;;5015770;28;20189;-72
2022/09/24 11:13:49;;;;;;;3.47;2.90;;;21.20;51.20;;;;;;5006665;28;20220;-72
2022/09/24 11:16:43;;;;;;;3.78;3.00;;;21.10;51.10;;;;;;5015533;28;20216;-72
2022/09/24 11:19:18;;;;;;;3.35;3.05;;;21.10;51.30;;;;;;5015419;28;20197;-72
2022/09/24 11:21:56;;;;;;;3.40;3.10;;;21.10;51.30;;;;;;5015582;28;20299;-72
2022/09/24 11:24:33;;;;;;;2.97;2.72;;;21.10;51.40;;;;;;5018059;28;20520;-72
2022/09/24 11:27:08;;;;;;;3.15;2.88;;;21.10;51.40;;;;;;5017569;28;20690;-72
2022/09/24 11:29:51;;;;;;;3.22;2.55;;;21.10;51.40;;;;;;5016802;28;20181;-72
2022/09/24 11:32:22;;;;;;;3.00;2.70;;;21.10;51.80;;;;;;5015429;28;20189;-72
2022/09/24 11:34:58;;;;;;;2.90;2.63;;;21.10;51.50;;;;;;5015331;28;20211;-72
2022/09/24 11:37:34;;;;;;;4.22;2.75;;;21.10;51.70;;;;;;5016370;28;20239;-72
2022/09/24 11:40:12;;;;;;;3.50;3.20;;;21.10;51.70;;;;;;5015326;28;20570;-72
2022/09/24 11:42:47;;;;;;;3.28;2.83;;;21.00;51.60;;;;;;5014983;28;20219;-72
2022/09/24 11:45:33;;;;;;;2.88;2.67;;;21.10;51.60;;;;;;5015950;28;20196;-72
2022/09/24 11:48:07;;;;;;;3.08;2.78;;;21.10;51.50;;;;;;5015248;28;20192;-72
2022/09/24 11:50:40;;;;;;;3.38;2.88;;;21.00;51.50;;;;;;5014846;28;20705;-72
2022/09/24 11:53:09;;;;;;;2.92;2.70;;;21.10;51.70;;;;;;5015070;28;20609;-72
2022/09/24 11:55:37;;;;;;;3.35;2.80;;;21.00;51.90;;;;;;5015973;28;20212;-72
2022/09/24 11:58:10;;;;;;;2.92;2.70;;;21.00;51.50;;;;;;5014649;28;20200;-72
2022/09/24 12:00:39;;;;;;;2.88;2.67;;;21.10;51.60;;;;;;5016085;28;20246;-71
2022/09/24 12:03:07;;;;;;;3.08;2.78;;;21.10;51.70;;;;;;5016291;28;20624;-71
2022/09/24 12:05:37;;;;;;;3.22;2.95;;;21.10;51.60;;;;;;5015416;28;20220;-71
2022/09/24 12:08:07;;;;;;;3.10;2.80;;;21.10;51.70;;;;;;5015326;28;20208;-71
2022/09/24 12:10:37;;;;;;;3.22;2.90;;;21.10;51.90;;;;;;5015516;28;20263;-71
2022/09/24 12:13:12;;;;;;;3.03;2.83;;;21.00;51.80;;;;;;5016716;28;20247;-71
2022/09/24 12:15:45;;;;;;;3.20;2.90;;;21.00;51.90;;;;;;5017168;28;20231;-72
2022/09/24 12:18:16;;;;;;;3.70;2.85;;;21.00;52.10;;;;;;5016056;28;20193;-72
2022/09/24 12:20:47;;;;;;;3.08;2.78;;;21.00;52.10;;;;;;5016176;28;20231;-72
2022/09/24 12:23:16;;;;;;;2.70;2.50;;;21.10;52.00;;;;;;5015260;28;20240;-72
2022/09/24 12:25:45;;;;;;;3.00;2.80;;;21.00;52.00;;;;;;5015090;28;20209;-72
2022/09/24 12:28:12;;;;;;;3.38;2.90;;;21.00;52.20;;;;;;5014235;28;20228;-72
2022/09/24 12:33:29;;;;;;;2.85;2.65;;;21.00;52.30;;;;;;5014147;28;20199;-72
2022/09/24 12:36:03;;;;;;;3.05;2.70;;;21.00;52.50;;;;;;5014730;28;20220;-72
2022/09/24 12:38:32;;;;;;;5.50;3.83;;;21.00;52.40;;;;;;5014049;28;20239;-71
2022/09/24 12:41:27;;;;;;;3.63;3.15;;;20.90;52.40;;;;;;5013113;28;20224;-71
2022/09/24 12:43:58;;;;;;;3.42;3.13;;;20.90;52.40;;;;;;4991154;28;20617;-72
2022/09/24 12:46:27;;;;;;;3.70;3.00;;;20.90;52.40;;;;;;5013921;28;20231;-72
2022/09/24 12:48:54;;;;;;;3.28;2.70;;;20.90;52.40;;;;;;4997819;28;20208;-72
2022/09/24 12:51:22;;;;;;;2.85;2.65;;;20.80;52.50;;;;;;5013805;28;20197;-72
2022/09/24 12:54:00;;;;;;;3.00;2.80;;;20.80;52.60;;;;;;5015395;28;20204;-72
2022/09/24 12:56:28;;;;;;;3.00;2.80;;;20.80;52.60;;;;;;5014699;28;20223;-72
2022/09/24 12:58:55;;;;;;;2.95;2.65;;;20.80;52.40;;;;;;5013542;28;20200;-72
2022/09/24 13:01:27;;;;;;;3.15;2.60;;;20.80;52.50;;;;;;5013237;28;20224;-72
2022/09/24 13:04:05;;;;;;;3.15;2.85;;;20.80;52.30;;;;;;5013493;28;20201;-72
2022/09/24 13:06:34;;;;;;;2.92;2.58;;;20.80;52.40;;;;;;5014995;28;20216;-72
2022/09/24 13:09:02;;;;;;;2.65;2.45;;;20.80;52.30;;;;;;5013420;28;20188;-72
2022/09/24 13:11:31;;;;;;;3.15;2.85;;;20.90;52.30;;;;;;5014986;28;20188;-72
2022/09/24 13:14:06;;;;;;;3.20;2.90;;;20.90;52.00;;;;;;5013282;28;20667;-72